Time;durP1;ratioP1;P1;durP2;ratioP2;P2;SDS_P1;SDS_P2;PMS_P1;PMS_P2;Temp;Humidity;BMP_temperature;BMP_pressure;BME280_temperature;BME280_humidity;BME280_pressure;Samples;Min_cycle;Max_cycle;Signal;HPM_P1;HPM_P2
2022/04/15 00:00:25;;;;;;;6.78;2.90;;;;;;;11.70;64.32;101534.63;2113595;28;20044;-75
2022/04/15 00:01:47;;;;;;;6.55;2.50;;;;;;;11.71;64.42;101523.19;2104564;28;20063;-75
2022/04/15 00:03:11;;;;;;;5.65;3.55;;;;;;;11.72;64.52;101517.94;2096403;28;20644;-74
2022/04/15 00:04:34;;;;;;;8.80;2.80;;;;;;;11.74;64.67;101526.88;2094441;28;20449;-74
2022/04/15 00:05:56;;;;;;;5.53;3.63;;;;;;;11.78;64.74;101522.53;2114940;27;20050;-75
2022/04/15 00:07:17;;;;;;;8.25;3.42;;;;;;;11.81;64.74;101520.84;2099861;28;20044;-75
2022/04/15 00:08:42;;;;;;;4.70;2.67;;;;;;;11.84;64.83;101515.63;2101943;28;20040;-75
2022/04/15 00:10:05;;;;;;;7.82;3.58;;;;;;;11.86;64.74;101519.19;2106275;28;20424;-75
2022/04/15 00:11:28;;;;;;;6.45;2.97;;;;;;;11.85;64.83;101517.41;2100147;28;20039;-75
2022/04/15 00:12:51;;;;;;;5.68;2.60;;;;;;;11.83;64.70;101516.47;2105619;28;20044;-75
2022/04/15 00:14:12;;;;;;;4.80;2.40;;;;;;;11.78;64.51;101518.13;2113183;28;20054;-75
2022/04/15 00:15:35;;;;;;;7.70;2.53;;;;;;;11.77;64.45;101510.16;2099060;28;20036;-74
2022/04/15 00:16:57;;;;;;;5.95;2.53;;;;;;;11.74;64.65;101507.44;2091296;28;20554;-75
2022/04/15 00:18:19;;;;;;;7.07;2.03;;;;;;;11.72;64.62;101511.78;2085570;28;20089;-74
2022/04/15 00:19:41;;;;;;;7.82;2.50;;;;;;;11.70;64.84;101510.84;2091016;28;20040;-74
2022/04/15 00:21:04;;;;;;;6.68;2.60;;;;;;;11.71;64.94;101510.88;2100529;28;20055;-74
2022/04/15 00:22:26;;;;;;;;;;;;;;;11.72;65.05;101507.38;2085648;28;20410;-75
2022/04/15 00:23:54;;;;;;;7.47;3.28;;;;;;;11.74;65.17;101508.34;2105523;28;19962;-75
2022/04/15 00:25:16;;;;;;;4.72;2.60;;;;;;;11.76;65.21;101506.59;2095880;28;20041;-75
2022/04/15 00:26:39;;;;;;;7.88;2.97;;;;;;;11.82;65.18;101503.19;2103158;28;20043;-75
2022/04/15 00:28:00;;;;;;;5.63;3.10;;;;;;;11.85;65.02;101504.19;2100733;28;20068;-74
2022/04/15 00:29:23;;;;;;;4.78;2.72;;;;;;;11.87;64.89;101499.81;2107617;28;20052;-75
2022/04/15 00:30:44;;;;;;;7.53;2.83;;;;;;;11.89;64.74;101500.72;2099677;28;20139;-75
2022/04/15 00:32:08;;;;;;;3.95;2.67;;;;;;;11.90;64.71;101497.22;2111586;27;20070;-75
2022/04/15 00:33:29;;;;;;;4.18;2.10;;;;;;;11.82;64.67;101504.09;2113316;28;20120;-74
2022/04/15 00:34:52;;;;;;;5.95;2.65;;;;;;;11.75;64.58;101501.31;2110158;28;20054;-75
2022/04/15 00:36:14;;;;;;;6.50;3.45;;;;;;;11.69;64.44;101491.41;2108236;28;20105;-75
2022/04/15 00:37:37;;;;;;;5.82;2.42;;;;;;;11.68;64.49;101497.59;2104607;28;20054;-75
2022/04/15 00:39:01;;;;;;;4.95;2.55;;;;;;;11.67;64.62;101495.81;2101197;28;20040;-75
2022/04/15 00:40:22;;;;;;;6.43;3.08;;;;;;;11.70;64.76;101500.25;2119395;28;20524;-75
2022/04/15 00:41:45;;;;;;;4.85;2.42;;;;;;;11.73;64.88;101497.69;2106904;28;20564;-74
2022/04/15 00:43:06;;;;;;;7.07;4.15;;;;;;;11.75;64.93;101491.59;2095510;28;20048;-75
2022/04/15 00:44:28;;;;;;;5.18;2.47;;;;;;;11.77;64.93;101489.88;2098020;28;20028;-75
2022/04/15 00:45:50;;;;;;;5.65;3.00;;;;;;;11.79;64.80;101487.28;2104511;28;20135;-75
2022/04/15 00:47:20;;;;;;;5.65;2.63;;;;;;;11.81;64.81;101486.47;2118648;28;20473;-75
2022/04/15 00:48:42;;;;;;;5.35;3.03;;;;;;;11.77;64.66;101487.25;2105488;28;20076;-75
2022/04/15 00:50:05;;;;;;;8.50;2.90;;;;;;;11.69;64.59;101483.47;2092997;28;20093;-75
2022/04/15 00:51:29;;;;;;;7.15;2.97;;;;;;;11.64;64.64;101481.59;2094945;28;20092;-75
2022/04/15 00:52:53;;;;;;;6.43;2.97;;;;;;;11.57;64.56;101476.19;2091488;28;20101;-75
2022/04/15 00:54:20;;;;;;;5.55;3.08;;;;;;;11.55;64.46;101479.66;2096249;28;20048;-75
2022/04/15 00:55:42;;;;;;;9.90;3.67;;;;;;;11.55;64.56;101482.31;2097920;28;20393;-75
2022/04/15 00:57:06;;;;;;;6.68;3.15;;;;;;;11.53;64.54;101476.06;2094028;28;20541;-74
2022/04/15 00:58:28;;;;;;;5.88;3.17;;;;;;;11.53;64.68;101484.00;2093967;28;20067;-75
2022/04/15 00:59:53;;;;;;;5.97;3.15;;;;;;;11.53;64.71;101481.38;2099102;28;20068;-75
2022/04/15 01:01:17;;;;;;;11.20;4.45;;;;;;;11.54;64.71;101485.81;2096534;28;20529;-75
2022/04/15 01:02:38;;;;;;;7.43;3.17;;;;;;;11.53;64.80;101476.97;2106039;28;20063;-75
2022/04/15 01:04:03;;;;;;;8.85;3.35;;;;;;;11.54;64.88;101476.13;2101774;28;20583;-75
2022/04/15 01:05:26;;;;;;;5.88;2.85;;;;;;;11.55;64.67;101472.59;2093447;28;20036;-75
2022/04/15 01:06:48;;;;;;;;;;;;;;;11.55;64.83;101477.03;2111058;28;20039;-75
2022/04/15 01:08:12;;;;;;;;;;;;;;;11.52;64.92;101471.66;2090905;28;19990;-75
2022/04/15 01:09:42;;;;;;;6.72;3.53;;;;;;;11.53;65.00;101468.16;2085523;28;19920;-75
2022/04/15 01:11:07;;;;;;;5.30;3.40;;;;;;;11.54;65.07;101469.94;2109159;28;20079;-75
2022/04/15 01:12:32;;;;;;;6.72;3.13;;;;;;;11.56;65.18;101463.81;2103497;28;20389;-74
2022/04/15 01:14:00;;;;;;;4.88;2.75;;;;;;;11.55;65.21;101463.78;2089628;28;20514;-75
2022/04/15 01:15:25;;;;;;;4.65;2.70;;;;;;;11.48;64.99;101470.69;2092776;28;20048;-75
2022/04/15 01:16:47;;;;;;;6.50;3.40;;;;;;;11.39;64.93;101469.56;2085402;28;20894;-76
2022/04/15 01:18:10;;;;;;;6.20;3.30;;;;;;;11.35;65.02;101462.44;2090968;28;20071;-75
2022/04/15 01:19:31;;;;;;;3.60;2.78;;;;;;;11.33;65.18;101464.16;2093669;28;20488;-75
2022/04/15 01:20:54;;;;;;;5.57;3.50;;;;;;;11.34;65.37;101463.28;2110399;28;20075;-75
2022/04/15 01:22:21;;;;;;;7.38;2.95;;;;;;;11.35;65.29;101465.97;2098583;28;20486;-75
2022/04/15 01:23:45;;;;;;;5.53;3.10;;;;;;;11.36;65.52;101453.63;2104446;28;20051;-75
2022/04/15 01:25:07;;;;;;;8.68;3.30;;;;;;;11.37;65.44;101455.41;2104470;28;20044;-75
2022/04/15 01:26:30;;;;;;;8.70;3.63;;;;;;;11.38;65.68;101450.16;2102927;28;20043;-75
2022/04/15 01:27:51;;;;;;;7.35;3.53;;;;;;;11.38;65.79;101455.47;2117715;27;20043;-75
2022/04/15 01:29:13;;;;;;;7.88;2.90;;;;;;;11.38;65.70;101446.63;2109004;28;20040;-75
2022/04/15 01:30:35;;;;;;;6.60;3.35;;;;;;;11.40;65.96;101448.47;2106184;28;20060;-75
2022/04/15 01:31:57;;;;;;;7.82;3.40;;;;;;;11.42;66.05;101446.72;2097758;28;20087;-76
2022/04/15 01:33:20;;;;;;;5.63;2.83;;;;;;;11.43;66.09;101442.34;2108936;28;20043;-75
2022/04/15 01:34:42;;;;;;;8.90;4.63;;;;;;;11.40;66.04;101437.91;2111828;28;20071;-75
2022/04/15 01:36:05;;;;;;;5.60;3.35;;;;;;;11.41;66.09;101439.69;2102418;28;20055;-74
2022/04/15 01:37:28;;;;;;;7.88;2.72;;;;;;;11.41;66.26;101441.44;2100593;28;20819;-75
2022/04/15 01:38:52;;;;;;;9.00;3.30;;;;;;;11.41;66.17;101437.03;2120384;27;20059;-75
2022/04/15 01:40:15;;;;;;;11.00;3.28;;;;;;;11.42;66.10;101435.28;2099101;28;20071;-75
2022/04/15 01:41:39;;;;;;;9.60;4.10;;;;;;;11.40;66.18;101435.25;2100827;28;20102;-75
2022/04/15 01:43:01;;;;;;;6.07;3.28;;;;;;;11.36;66.21;101429.84;2102994;28;20398;-75
2022/04/15 01:44:23;;;;;;;4.97;3.08;;;;;;;11.36;66.20;101443.06;2098962;28;20435;-75
2022/04/15 01:45:47;;;;;;;7.43;3.20;;;;;;;11.33;66.22;101435.97;2106754;28;20073;-75
2022/04/15 01:47:09;;;;;;;6.07;3.13;;;;;;;11.36;66.23;101437.75;2095077;28;20202;-75
2022/04/15 01:48:31;;;;;;;6.10;2.72;;;;;;;11.36;66.32;101437.75;2115768;27;20035;-74
2022/04/15 01:49:53;;;;;;;7.18;3.58;;;;;;;11.37;66.23;101435.16;2100508;28;20056;-75
2022/04/15 01:51:15;;;;;;;6.78;3.38;;;;;;;11.38;66.35;101436.06;2103264;28;20086;-75
2022/04/15 01:52:37;;;;;;;5.80;3.35;;;;;;;11.37;66.30;101431.63;2097659;28;20485;-75
2022/04/15 01:54:01;;;;;;;6.97;2.92;;;;;;;11.39;66.29;101437.84;2106346;28;20060;-75
2022/04/15 01:55:23;;;;;;;7.68;3.75;;;;;;;11.39;66.35;101437.84;2103743;28;20052;-75
2022/04/15 01:56:46;;;;;;;7.82;3.10;;;;;;;11.38;66.30;101431.66;2097288;28;20044;-75
2022/04/15 01:58:07;;;;;;;7.88;3.58;;;;;;;11.40;66.55;101431.72;2097502;28;20111;-75
2022/04/15 01:59:30;;;;;;;8.85;3.05;;;;;;;11.40;66.49;101437.00;2097823;28;20037;-76
2022/04/15 02:00:53;;;;;;;7.57;3.45;;;;;;;11.38;66.57;101426.38;2103550;28;20044;-75
2022/04/15 02:02:14;;;;;;;6.70;3.25;;;;;;;11.37;66.36;101428.97;2080642;28;20053;-75
2022/04/15 02:03:37;;;;;;;5.60;3.30;;;;;;;11.34;66.50;101427.19;2081482;28;20466;-75
2022/04/15 02:04:59;;;;;;;7.03;3.10;;;;;;;11.34;66.50;101434.22;2100349;28;20130;-75
2022/04/15 02:06:22;;;;;;;10.82;3.60;;;;;;;11.35;66.69;101430.72;2097179;28;20048;-75
2022/04/15 02:07:44;;;;;;;5.35;2.80;;;;;;;11.36;66.79;101433.38;2097334;28;20044;-75
2022/04/15 02:09:08;;;;;;;8.68;3.15;;;;;;;11.38;66.75;101436.94;2105734;28;20039;-75
2022/04/15 02:10:32;;;;;;;8.18;3.50;;;;;;;11.38;66.75;101431.66;2100538;28;20059;-75
2022/04/15 02:11:53;;;;;;;6.75;2.88;;;;;;;11.39;66.95;101432.56;2092520;28;20044;-75
2022/04/15 02:13:16;;;;;;;5.10;3.17;;;;;;;11.39;66.97;101438.75;2091381;28;20056;-75
2022/04/15 02:14:37;;;;;;;9.15;3.13;;;;;;;11.41;66.87;101436.16;2108601;28;20055;-75
2022/04/15 02:16:00;;;;;;;6.70;3.17;;;;;;;11.41;66.93;101437.03;2110872;28;20049;-75
2022/04/15 02:17:22;;;;;;;6.35;2.88;;;;;;;11.39;66.97;101433.47;2106533;28;22211;-75
2022/04/15 02:18:44;;;;;;;;;;;;;;;11.40;67.04;101435.25;2103451;28;20048;-75
2022/04/15 02:20:06;;;;;;;7.25;3.58;;;;;;;11.39;66.98;101436.09;2096933;28;19920;-75
2022/04/15 02:21:29;;;;;;;9.95;3.40;;;;;;;11.40;67.01;101429.06;2091792;28;20203;-75
2022/04/15 02:22:54;;;;;;;10.13;3.67;;;;;;;11.41;67.03;101431.75;2111551;28;20432;-75
2022/04/15 02:24:18;;;;;;;7.88;3.92;;;;;;;11.42;67.25;101422.06;2111625;28;20039;-75
2022/04/15 02:25:40;;;;;;;7.60;3.60;;;;;;;11.44;67.21;101426.53;2106747;28;20044;-75
2022/04/15 02:27:02;;;;;;;6.53;3.53;;;;;;;11.46;67.40;101423.91;2093988;28;20070;-75
2022/04/15 02:28:25;;;;;;;6.90;3.85;;;;;;;11.47;67.28;101428.34;2108681;28;20047;-75
2022/04/15 02:29:46;;;;;;;7.47;3.25;;;;;;;11.45;67.32;101422.13;2105199;28;20112;-75
2022/04/15 02:31:09;;;;;;;8.32;3.63;;;;;;;11.44;67.30;101422.97;2086405;28;20048;-75
2022/04/15 02:32:31;;;;;;;5.63;3.58;;;;;;;11.42;67.31;101427.34;2112123;27;20092;-75
2022/04/15 02:33:53;;;;;;;10.75;3.92;;;;;;;11.40;67.39;101423.78;2098769;28;20060;-75
2022/04/15 02:35:15;;;;;;;9.90;3.45;;;;;;;11.38;67.40;101425.47;2086271;28;20041;-74
2022/04/15 02:36:36;;;;;;;8.63;3.30;;;;;;;11.37;67.29;101432.53;2092181;28;20048;-75
2022/04/15 02:37:59;;;;;;;7.25;4.05;;;;;;;11.34;67.30;101434.22;2094427;28;20079;-75
2022/04/15 02:39:23;;;;;;;8.77;3.67;;;;;;;11.33;67.16;101435.97;2100347;28;20517;-75
2022/04/15 02:40:46;;;;;;;8.57;2.85;;;;;;;11.30;67.44;101434.97;2094639;28;20517;-75
2022/04/15 02:42:09;;;;;;;8.63;3.35;;;;;;;11.29;67.16;101442.00;2100255;28;20517;-76
2022/04/15 02:43:32;;;;;;;5.22;3.40;;;;;;;11.31;67.53;101439.41;2096393;28;20040;-75
2022/04/15 02:44:56;;;;;;;6.15;3.40;;;;;;;11.32;67.56;101436.81;2094831;28;20090;-75
2022/04/15 02:46:20;;;;;;;6.93;4.00;;;;;;;11.34;67.71;101436.84;2092603;28;20060;-75
2022/04/15 02:47:42;;;;;;;7.97;3.83;;;;;;;11.35;67.82;101433.38;2103339;28;20040;-75
2022/04/15 02:49:05;;;;;;;7.82;3.70;;;;;;;11.36;67.88;101443.06;2095141;28;20110;-75
2022/04/15 02:50:27;;;;;;;5.28;3.30;;;;;;;11.36;68.05;101433.38;2094206;28;20056;-75
2022/04/15 02:51:50;;;;;;;9.23;3.63;;;;;;;11.38;68.00;101439.59;2078298;28;20052;-74
2022/04/15 02:53:14;;;;;;;9.52;3.65;;;;;;;11.40;67.94;101431.72;2081227;28;20154;-75
2022/04/15 02:54:38;;;;;;;14.25;4.22;;;;;;;11.40;68.11;101437.00;2092146;28;20488;-75
2022/04/15 02:56:00;;;;;;;7.18;3.83;;;;;;;11.39;68.03;101435.22;2094149;28;20072;-74
2022/04/15 02:57:23;;;;;;;5.03;3.45;;;;;;;11.36;67.90;101429.84;2093917;28;20494;-75
2022/04/15 02:58:45;;;;;;;5.80;3.20;;;;;;;11.36;68.00;101427.19;2092466;28;20639;-75
2022/04/15 03:00:08;;;;;;;7.70;3.20;;;;;;;11.36;68.08;101427.19;2080877;28;20181;-75
2022/04/15 03:01:30;;;;;;;7.47;4.07;;;;;;;11.37;68.09;101431.63;2083894;28;20053;-75
2022/04/15 03:02:52;;;;;;;7.05;3.58;;;;;;;11.36;68.18;101429.84;2085934;28;20055;-74
2022/04/15 03:04:13;;;;;;;6.57;3.90;;;;;;;11.31;68.24;101432.38;2077903;28;20487;-75
2022/04/15 03:05:36;;;;;;;9.52;5.25;;;;;;;11.28;68.05;101428.78;2073519;28;20061;-75
2022/04/15 03:06:58;;;;;;;7.78;4.00;;;;;;;11.24;67.99;101434.84;2080905;28;20530;-75
2022/04/15 03:08:21;;;;;;;9.02;3.80;;;;;;;11.21;68.06;101434.78;2083716;28;20049;-75
2022/04/15 03:09:45;;;;;;;6.40;4.00;;;;;;;11.17;68.32;101431.16;2083598;28;20399;-75
2022/04/15 03:11:07;;;;;;;9.77;4.13;;;;;;;11.15;68.18;101428.50;2083253;28;20053;-75
2022/04/15 03:12:34;;;;;;;6.65;3.13;;;;;;;11.16;68.34;101435.53;2085873;28;20044;-75
2022/04/15 03:13:56;;;;;;;9.02;4.20;;;;;;;11.19;68.52;101434.75;2091880;28;20052;-75
2022/04/15 03:15:18;;;;;;;10.98;3.67;;;;;;;11.18;68.42;101433.84;2094218;28;20044;-75
2022/04/15 03:16:41;;;;;;;8.70;3.42;;;;;;;11.19;68.48;101430.34;2094331;28;20146;-75
2022/04/15 03:18:04;;;;;;;8.63;3.83;;;;;;;11.21;68.61;101433.03;2085892;28;20430;-75
2022/04/15 03:19:26;;;;;;;7.25;3.95;;;;;;;11.18;68.60;101428.56;2088045;28;20036;-75
2022/04/15 03:20:48;;;;;;;5.90;3.50;;;;;;;11.18;68.72;101431.19;2090043;28;20414;-75
2022/04/15 03:22:11;;;;;;;7.47;3.72;;;;;;;11.16;68.62;101426.72;2083071;28;20041;-75
2022/04/15 03:23:32;;;;;;;5.38;3.17;;;;;;;11.14;68.64;101433.75;2080311;28;20069;-75
2022/04/15 03:24:56;;;;;;;8.05;3.60;;;;;;;11.13;68.60;101434.59;2090648;28;20052;-75
2022/04/15 03:26:19;;;;;;;7.50;3.75;;;;;;;11.11;68.58;101431.00;2088609;28;20045;-74
2022/04/15 03:27:41;;;;;;;6.82;3.60;;;;;;;11.12;68.80;101439.00;2086053;28;20456;-75
2022/04/15 03:29:04;;;;;;;8.18;3.47;;;;;;;11.11;68.87;101431.91;2102586;28;20097;-74
2022/04/15 03:30:26;;;;;;;6.53;3.30;;;;;;;11.10;68.99;101435.41;2091042;28;20064;-75
2022/04/15 03:31:49;;;;;;;8.48;3.70;;;;;;;11.13;69.00;101435.50;2084491;28;20060;-75
2022/04/15 03:33:11;;;;;;;9.25;3.90;;;;;;;11.15;69.17;101433.78;2086016;28;20069;-75
2022/04/15 03:34:34;;;;;;;6.13;3.20;;;;;;;11.16;69.18;101439.94;2077382;28;20513;-75
2022/04/15 03:35:55;;;;;;;6.45;3.75;;;;;;;11.17;69.31;101441.72;2097260;28;20048;-75
2022/04/15 03:37:17;;;;;;;9.77;3.90;;;;;;;11.15;69.15;101444.34;2102148;28;20278;-75
2022/04/15 03:38:40;;;;;;;5.13;3.55;;;;;;;11.14;69.08;101461.06;2099014;28;20032;-75
2022/04/15 03:40:06;;;;;;;13.32;4.18;;;;;;;11.12;69.14;101457.47;2087508;28;20106;-75
2022/04/15 03:41:28;;;;;;;7.70;4.13;;;;;;;11.08;69.17;101454.75;2103326;28;20044;-75
2022/04/15 03:42:53;;;;;;;7.18;4.20;;;;;;;11.06;69.24;101462.63;2093944;28;20049;-75
2022/04/15 03:44:16;;;;;;;7.43;3.90;;;;;;;11.04;69.39;101458.13;2103061;28;20052;-75
2022/04/15 03:45:38;;;;;;;9.50;3.50;;;;;;;11.02;69.26;101462.50;2097968;28;20107;-75
2022/04/15 03:47:01;;;;;;;7.50;3.58;;;;;;;11.01;69.28;101461.63;2093885;28;20032;-75
2022/04/15 03:48:25;;;;;;;7.95;4.15;;;;;;;10.98;69.39;101466.81;2094077;28;20059;-75
2022/04/15 03:49:47;;;;;;;7.10;3.65;;;;;;;10.97;69.28;101464.13;2078796;28;20122;-74
2022/04/15 03:51:11;;;;;;;10.55;3.80;;;;;;;10.96;69.38;101463.22;2083206;28;20041;-75
2022/04/15 03:52:38;;;;;;;5.97;3.30;;;;;;;10.97;69.56;101472.03;2086351;28;20399;-75
2022/04/15 03:54:00;;;;;;;8.13;4.15;;;;;;;10.95;69.50;101474.69;2086626;28;20041;-75
2022/04/15 03:55:24;;;;;;;8.50;3.67;;;;;;;10.96;69.56;101473.78;2090420;28;20459;-75
2022/04/15 03:56:47;;;;;;;8.68;3.45;;;;;;;10.97;69.69;101469.41;2094231;28;20057;-75
2022/04/15 03:58:11;;;;;;;8.00;3.75;;;;;;;11.00;69.70;101467.75;2094246;28;20087;-75
2022/04/15 03:59:34;;;;;;;8.93;4.18;;;;;;;11.04;69.80;101480.16;2091700;28;20364;-75
2022/04/15 04:00:57;;;;;;;6.38;4.43;;;;;;;11.08;70.19;101482.06;2088587;28;20033;-75
2022/04/15 04:02:19;;;;;;;9.15;4.53;;;;;;;11.14;70.31;101481.31;2098975;28;20138;-75
2022/04/15 04:03:41;;;;;;;9.00;4.60;;;;;;;11.22;70.32;101478.88;2089015;28;20053;-75
2022/04/15 04:05:04;;;;;;;5.95;3.95;;;;;;;11.28;70.44;101485.19;2085871;28;20454;-74
2022/04/15 04:06:26;;;;;;;7.03;4.15;;;;;;;11.37;70.56;101492.41;2088500;28;20110;-75
2022/04/15 04:07:49;;;;;;;15.05;3.92;;;;;;;11.43;70.59;101484.63;2085407;28;20118;-75
2022/04/15 04:09:11;;;;;;;10.25;4.15;;;;;;;11.50;70.45;101489.22;2092251;28;20090;-75
2022/04/15 04:10:35;;;;;;;8.85;4.38;;;;;;;11.57;70.31;101480.56;2094130;28;20075;-75
2022/04/15 04:11:56;;;;;;;6.30;3.83;;;;;;;11.63;70.32;101479.81;2093921;28;20052;-75
2022/04/15 04:13:19;;;;;;;7.55;3.83;;;;;;;11.66;70.33;101483.44;2088745;28;20133;-75
2022/04/15 04:14:41;;;;;;;11.60;5.03;;;;;;;11.71;70.29;101489.72;2088197;28;20090;-75
2022/04/15 04:16:04;;;;;;;7.90;4.60;;;;;;;11.80;70.16;101491.72;2090713;28;20049;-75
2022/04/15 04:17:25;;;;;;;8.63;4.35;;;;;;;11.86;70.25;101484.81;2091460;28;20413;-75
2022/04/15 04:18:48;;;;;;;10.60;4.13;;;;;;;11.90;70.15;101493.69;2093388;28;20071;-75
2022/04/15 04:20:10;;;;;;;9.38;4.35;;;;;;;11.94;70.11;101498.22;2079993;28;20123;-75
2022/04/15 04:21:33;;;;;;;5.78;2.88;;;;;;;11.95;69.87;101498.22;2080271;28;20037;-75
2022/04/15 04:22:56;;;;;;;12.35;4.22;;;;;;;11.95;69.69;101495.56;2091395;28;20448;-74
2022/04/15 04:24:17;;;;;;;8.23;4.28;;;;;;;11.96;69.71;101497.38;2086076;28;20053;-75
2022/04/15 04:25:41;;;;;;;10.07;4.40;;;;;;;11.99;69.70;101501.84;2082760;28;20431;-74
2022/04/15 04:27:03;;;;;;;10.60;4.38;;;;;;;12.02;69.69;101501.88;2108119;28;20043;-74
2022/04/15 04:28:26;;;;;;;6.93;4.15;;;;;;;12.06;69.62;101509.06;2089707;28;20414;-75
2022/04/15 04:29:47;;;;;;;7.88;4.13;;;;;;;12.11;69.61;101502.09;2083193;28;20060;-74
2022/04/15 04:31:09;;;;;;;7.85;4.10;;;;;;;12.15;69.50;101509.22;2077192;28;20053;-75
2022/04/15 04:32:31;;;;;;;8.65;4.45;;;;;;;12.19;69.49;101505.81;2087829;28;20134;-75
2022/04/15 04:33:54;;;;;;;10.27;4.25;;;;;;;12.23;69.36;101506.75;2085487;28;20051;-75
2022/04/15 04:35:17;;;;;;;8.07;4.28;;;;;;;12.32;69.40;101506.94;2101403;28;20803;-75
2022/04/15 04:36:39;;;;;;;6.97;3.45;;;;;;;12.47;69.56;101506.38;2086281;28;20044;-75
2022/04/15 04:38:02;;;;;;;5.65;3.50;;;;;;;12.55;69.43;101505.63;2087549;28;20102;-75
2022/04/15 04:39:25;;;;;;;8.23;3.72;;;;;;;12.59;69.32;101507.50;2084275;28;20118;-74
2022/04/15 04:40:50;;;;;;;5.78;3.97;;;;;;;12.67;69.27;101504.97;2091811;28;20056;-75
2022/04/15 04:42:11;;;;;;;9.10;5.43;;;;;;;12.78;69.33;101509.63;2095908;28;20080;-75
2022/04/15 04:43:34;;;;;;;12.82;5.45;;;;;;;12.82;69.28;101512.31;2093235;28;20041;-75
2022/04/15 04:44:58;;;;;;;11.75;5.28;;;;;;;12.83;69.20;101514.13;2077521;28;20049;-75
2022/04/15 04:46:21;;;;;;;6.88;4.18;;;;;;;12.81;69.21;101510.53;2085222;28;20108;-75
2022/04/15 04:47:45;;;;;;;10.88;4.30;;;;;;;12.81;69.12;101515.81;2090968;28;20151;-75
2022/04/15 04:49:07;;;;;;;7.10;4.65;;;;;;;12.79;69.13;101515.81;2085554;28;20530;-75
2022/04/15 04:50:30;;;;;;;7.28;3.88;;;;;;;12.80;69.12;101522.03;2091055;28;20047;-75
2022/04/15 04:51:52;;;;;;;6.88;3.03;;;;;;;12.84;69.06;101522.09;2092662;28;20056;-75
2022/04/15 04:53:14;;;;;;;7.30;3.45;;;;;;;12.89;69.15;101516.88;2092683;28;20541;-75
2022/04/15 04:54:36;;;;;;;6.70;3.95;;;;;;;12.94;69.01;101516.09;2087386;28;20044;-75
2022/04/15 04:56:00;;;;;;;10.80;3.72;;;;;;;12.99;69.00;101522.38;2085029;28;20466;-75
2022/04/15 04:57:22;;;;;;;5.90;3.28;;;;;;;13.05;68.88;101519.84;2099548;28;20052;-75
2022/04/15 04:58:45;;;;;;;7.88;3.30;;;;;;;13.18;68.98;101520.97;2102163;28;20447;-75
2022/04/15 05:00:09;;;;;;;7.95;4.30;;;;;;;13.40;69.10;101523.09;2093448;28;20032;-74
2022/04/15 05:01:31;;;;;;;10.35;5.15;;;;;;;13.70;69.25;101521.81;2084946;28;20041;-74
2022/04/15 05:02:54;;;;;;;6.82;3.58;;;;;;;13.96;69.14;101528.38;2084337;28;20076;-75
2022/04/15 05:04:15;;;;;;;7.88;4.30;;;;;;;14.13;69.03;101523.28;2079892;28;20045;-74
2022/04/15 05:05:37;;;;;;;9.73;4.00;;;;;;;14.24;68.82;101527.88;2095322;28;20098;-75
2022/04/15 05:06:59;;;;;;;11.38;4.18;;;;;;;14.42;68.81;101526.38;2088874;28;20449;-74
2022/04/15 05:08:21;;;;;;;9.55;4.10;;;;;;;14.59;68.73;101522.13;2093810;28;20499;-75
2022/04/15 05:09:43;;;;;;;6.55;3.30;;;;;;;14.75;68.57;101524.09;2086199;28;20095;-75
2022/04/15 05:11:08;;;;;;;7.13;3.78;;;;;;;14.79;68.38;101523.25;2095273;28;20102;-75
2022/04/15 05:12:30;;;;;;;6.93;3.22;;;;;;;14.74;68.09;101528.53;2095301;28;20040;-74
2022/04/15 05:13:52;;;;;;;10.48;3.38;;;;;;;14.68;68.06;101530.22;2086782;28;20076;-75
2022/04/15 05:15:15;;;;;;;8.10;3.35;;;;;;;14.74;68.23;101532.94;2092582;28;20551;-74
2022/04/15 05:16:36;;;;;;;8.00;3.97;;;;;;;14.93;68.20;101523.38;2096586;28;20049;-75
2022/04/15 05:17:59;;;;;;;7.15;3.70;;;;;;;15.11;68.06;101521.78;2099922;28;20617;-75
2022/04/15 05:19:21;;;;;;;10.60;4.55;;;;;;;15.18;67.85;101527.16;2103517;28;20052;-75
2022/04/15 05:20:43;;;;;;;6.15;3.17;;;;;;;15.16;67.91;101528.03;2092182;28;20041;-75
2022/04/15 05:22:06;;;;;;;6.25;3.60;;;;;;;15.39;67.82;101530.91;2086760;28;20110;-75
2022/04/15 05:23:29;;;;;;;5.95;2.97;;;;;;;15.73;67.69;101524.09;2086775;28;20052;-75
2022/04/15 05:24:52;;;;;;;7.75;3.50;;;;;;;16.06;67.33;101528.75;2089002;28;20136;-75
2022/04/15 05:26:17;;;;;;;9.23;4.28;;;;;;;16.21;66.96;101525.28;2095698;28;20060;-75
2022/04/15 05:27:40;;;;;;;6.45;3.45;;;;;;;16.44;66.64;101526.25;2095266;28;20048;-75
2022/04/15 05:29:04;;;;;;;6.88;4.50;;;;;;;16.72;66.37;101528.16;2086740;28;20106;-75
2022/04/15 05:30:27;;;;;;;11.35;3.90;;;;;;;17.03;66.03;101528.22;2087256;28;20048;-75
2022/04/15 05:31:50;;;;;;;8.00;3.40;;;;;;;17.33;65.75;101533.56;2093808;28;20044;-75
2022/04/15 05:33:13;;;;;;;8.60;3.63;;;;;;;17.61;65.37;101523.81;2085991;28;20080;-75
2022/04/15 05:34:35;;;;;;;8.90;3.45;;;;;;;17.86;64.98;101532.69;2089638;28;20040;-75
2022/04/15 05:35:57;;;;;;;7.03;3.13;;;;;;;18.15;64.25;101528.16;2090636;28;20117;-75
2022/04/15 05:37:19;;;;;;;9.63;3.17;;;;;;;18.42;63.55;101535.19;2090510;28;20113;-75
2022/04/15 05:38:41;;;;;;;6.15;3.30;;;;;;;18.64;62.60;101533.34;2096587;28;20053;-75
2022/04/15 05:40:04;;;;;;;9.07;3.42;;;;;;;18.78;62.20;101542.16;2108549;28;20377;-75
2022/04/15 05:41:29;;;;;;;8.10;3.10;;;;;;;18.88;61.86;101525.19;2099676;28;20044;-75
2022/04/15 05:42:52;;;;;;;7.90;2.95;;;;;;;19.07;61.37;101533.97;2107168;28;20047;-75
2022/04/15 05:44:16;;;;;;;6.25;2.92;;;;;;;19.34;60.73;101532.88;2094944;28;20086;-75
2022/04/15 05:45:38;;;;;;;12.55;3.42;;;;;;;19.46;59.91;101532.81;2095096;28;20040;-76
2022/04/15 05:47:01;;;;;;;9.30;2.75;;;;;;;19.61;59.14;101535.38;2105991;28;20055;-75
2022/04/15 05:48:23;;;;;;;7.15;3.20;;;;;;;19.56;58.61;101530.97;2107879;28;20047;-75
2022/04/15 05:49:45;;;;;;;9.38;3.40;;;;;;;19.67;58.08;101529.94;2111909;28;20059;-76
2022/04/15 05:51:08;;;;;;;8.88;4.13;;;;;;;19.78;57.72;101530.72;2090637;28;21625;-75
2022/04/15 05:52:31;;;;;;;8.45;3.80;;;;;;;19.81;57.24;101530.72;2093260;28;20048;-75
2022/04/15 05:53:53;;;;;;;11.75;4.45;;;;;;;19.69;57.53;101536.16;2099844;28;20044;-75
2022/04/15 05:55:16;;;;;;;11.05;4.78;;;;;;;19.59;56.93;101530.91;2103235;28;20505;-75
2022/04/15 05:56:40;;;;;;;7.65;3.90;;;;;;;19.34;57.37;101524.84;2094875;28;20044;-75
2022/04/15 05:58:03;;;;;;;9.88;3.83;;;;;;;19.49;57.43;101533.66;2110727;27;20051;-74
2022/04/15 05:59:25;;;;;;;9.40;4.22;;;;;;;19.58;56.77;101532.69;2102247;28;20059;-75
2022/04/15 06:00:47;;;;;;;10.35;3.60;;;;;;;19.41;57.13;101524.78;2106052;28;20051;-76
2022/04/15 06:02:10;;;;;;;13.23;3.83;;;;;;;19.49;57.03;101530.97;2098973;28;20064;-75
2022/04/15 06:03:32;;;;;;;9.05;3.78;;;;;;;19.36;56.95;101528.41;2087024;28;20522;-76
2022/04/15 06:04:54;;;;;;;8.57;3.45;;;;;;;19.46;57.51;101519.41;2107500;28;20075;-75
2022/04/15 06:06:17;;;;;;;6.57;3.50;;;;;;;19.82;56.98;101520.88;2096896;28;20088;-76
2022/04/15 06:07:38;;;;;;;7.90;3.00;;;;;;;20.03;55.93;101519.72;2097584;28;20047;-75
2022/04/15 06:09:00;;;;;;;7.53;3.25;;;;;;;20.25;55.50;101526.63;2110772;27;20051;-75
2022/04/15 06:10:23;;;;;;;12.45;3.88;;;;;;;20.47;55.31;101528.19;2100246;28;20163;-75
2022/04/15 06:11:52;;;;;;;7.47;3.08;;;;;;;20.74;54.77;101529.63;2116820;27;20536;-75
2022/04/15 06:13:19;;;;;;;11.10;3.95;;;;;;;21.03;54.36;101527.38;2100315;28;20048;-76
2022/04/15 06:14:42;;;;;;;8.52;3.40;;;;;;;21.33;53.74;101525.19;2106691;28;20508;-76
2022/04/15 06:16:07;;;;;;;7.97;3.28;;;;;;;21.51;52.76;101523.97;2111753;28;20113;-75
2022/04/15 06:17:30;;;;;;;13.43;5.20;;;;;;;21.46;52.68;101521.38;2101733;28;20098;-75
2022/04/15 06:18:52;;;;;;;8.07;3.58;;;;;;;21.52;52.61;101521.28;2094975;28;20488;-76
2022/04/15 06:20:14;;;;;;;6.93;2.80;;;;;;;21.65;52.26;101525.50;2103138;28;20413;-76
2022/04/15 06:21:36;;;;;;;7.85;3.08;;;;;;;21.71;51.84;101532.56;2105406;28;20507;-76
2022/04/15 06:22:59;;;;;;;5.45;2.40;;;;;;;21.72;51.88;101527.19;2089161;28;20041;-76
2022/04/15 06:24:22;;;;;;;8.35;3.13;;;;;;;21.84;51.61;101518.00;2094581;28;20602;-76